Time;durP1;ratioP1;P1;durP2;ratioP2;P2;SDS_P1;SDS_P2;PMS_P1;PMS_P2;Temp;Humidity;BMP_temperature;BMP_pressure;BME280_temperature;BME280_humidity;BME280_pressure;Samples;Min_cycle;Max_cycle;Signal;HPM_P1;HPM_P2
2021/12/14 00:03:33;;;;;;;273.50;126.50;;;;;;;-0.72;64.89;100158.02;213291;1326;140230;-58
2021/12/14 00:08:48;;;;;;;266.40;120.90;;;;;;;-0.83;64.73;100162.70;213967;1324;139557;-60
2021/12/14 00:13:59;;;;;;;265.50;119.30;;;;;;;-1.00;64.67;100169.27;212003;1330;140054;-58
2021/12/14 00:19:03;;;;;;;265.60;118.90;;;;;;;-1.10;64.80;100164.88;212429;1329;139584;-59
2021/12/14 00:24:14;;;;;;;277.20;123.70;;;;;;;-1.15;64.80;100159.12;212348;1328;139891;-61
2021/12/14 00:29:48;;;;;;;270.10;124.20;;;;;;;-1.20;64.92;100153.52;212543;1327;139461;-60
2021/12/14 00:34:54;;;;;;;271.30;120.20;;;;;;;-1.20;65.12;100162.06;212286;1327;139963;-59
2021/12/14 00:40:02;;;;;;;272.60;124.90;;;;;;;-1.17;65.19;100167.82;212053;1334;140074;-63
2021/12/14 00:45:05;;;;;;;293.40;125.60;;;;;;;-1.11;65.25;100166.97;212225;1328;139708;-58
2021/12/14 00:50:10;;;;;;;313.80;133.40;;;;;;;-1.06;65.07;100162.27;212716;1323;143345;-58
2021/12/14 00:55:20;;;;;;;295.20;132.00;;;;;;;-1.01;65.12;100160.38;212725;1322;140802;-60
2021/12/14 01:00:30;;;;;;;307.10;140.50;;;;;;;-0.96;65.38;100164.76;212766;1326;140270;-65
2021/12/14 01:05:38;;;;;;;315.10;142.10;;;;;;;-0.84;65.44;100159.73;212728;1324;139707;-61
2021/12/14 01:10:52;;;;;;;312.60;138.50;;;;;;;-0.76;65.39;100158.19;212381;1327;139859;-61
2021/12/14 01:16:12;;;;;;;315.60;141.10;;;;;;;-0.81;64.96;100155.04;212600;1326;139736;-63
2021/12/14 01:26:40;;;;;;;312.40;140.20;;;;;;;-0.91;64.87;100154.48;212181;1329;139721;-63
2021/12/14 01:31:47;;;;;;;312.10;133.80;;;;;;;-0.95;64.74;100152.56;212016;1325;140561;-64
2021/12/14 01:36:56;;;;;;;310.00;133.30;;;;;;;-1.05;65.00;100156.38;212120;1326;140828;-61
2021/12/14 01:42:04;;;;;;;286.70;130.50;;;;;;;-1.10;65.07;100153.91;212360;1326;140602;-62
2021/12/14 01:47:21;;;;;;;304.40;131.00;;;;;;;-1.16;65.02;100145.36;212506;1323;140437;-63
2021/12/14 01:52:43;;;;;;;293.00;129.40;;;;;;;-1.22;65.42;100147.61;212625;1328;139785;-59
2021/12/14 01:57:47;;;;;;;324.10;132.30;;;;;;;-1.23;65.45;100147.26;212514;1323;139720;-62
2021/12/14 02:02:50;;;;;;;315.00;132.30;;;;;;;-1.23;65.73;100154.40;212163;1329;140319;-60
2021/12/14 02:07:56;;;;;;;338.00;138.40;;;;;;;-1.25;65.96;100155.95;212337;1323;139703;-60
2021/12/14 02:13:00;;;;;;;317.50;130.40;;;;;;;-1.22;66.24;100157.36;212771;1326;140636;-59
2021/12/14 02:18:12;;;;;;;330.30;136.50;;;;;;;-1.11;66.57;100153.21;212536;1323;140698;-60
2021/12/14 02:23:15;;;;;;;352.30;141.50;;;;;;;-1.00;66.77;100151.86;212563;1327;139775;-60
2021/12/14 02:28:20;;;;;;;352.10;144.00;;;;;;;-0.92;66.83;100150.47;212007;1330;139750;-59
2021/12/14 02:33:32;;;;;;;342.90;140.30;;;;;;;-0.90;67.03;100151.71;212568;1325;139469;-60
2021/12/14 02:38:44;;;;;;;317.80;135.30;;;;;;;-0.85;67.02;100148.75;212137;1331;140226;-60
2021/12/14 02:43:53;;;;;;;314.20;132.60;;;;;;;-0.84;67.02;100151.20;212381;1322;144481;-62
2021/12/14 02:49:05;;;;;;;325.00;135.10;;;;;;;-0.82;67.31;100148.23;212898;1322;140118;-62
2021/12/14 02:54:12;;;;;;;306.40;128.90;;;;;;;-0.83;67.20;100152.41;212643;1320;140010;-60
2021/12/14 02:59:25;;;;;;;298.90;127.40;;;;;;;-0.83;67.31;100156.77;213422;1323;139950;-59
2021/12/14 03:04:28;;;;;;;307.10;127.00;;;;;;;-0.81;67.39;100157.48;212995;1326;140919;-59
2021/12/14 03:14:46;;;;;;;314.70;133.30;;;;;;;-0.79;67.22;100156.08;212499;1322;178813;-60
2021/12/14 03:20:09;;;;;;;313.00;130.10;;;;;;;-0.77;67.38;100142.15;212033;1329;140356;-57
2021/12/14 03:25:14;;;;;;;299.30;130.10;;;;;;;-0.68;67.26;100137.46;212778;1323;141267;-60
2021/12/14 03:30:26;;;;;;;293.20;130.50;;;;;;;-0.59;67.50;100137.64;212724;1322;141068;-60
2021/12/14 03:35:45;;;;;;;305.90;135.80;;;;;;;-0.52;67.30;100138.86;212501;1325;140516;-60
2021/12/14 03:41:23;;;;;;;303.60;131.90;;;;;;;-0.47;67.60;100137.48;212050;1331;140161;-59
2021/12/14 03:46:35;;;;;;;280.00;130.50;;;;;;;-0.40;67.38;100144.27;212577;1326;139753;-57
2021/12/14 03:51:40;;;;;;;290.80;129.80;;;;;;;-0.40;67.28;100140.79;212419;1326;140545;-59
2021/12/14 03:56:44;;;;;;;282.40;128.70;;;;;;;-0.37;67.42;100136.42;212175;1328;140370;-59
2021/12/14 04:01:50;;;;;;;283.40;129.50;;;;;;;-0.34;67.39;100128.05;212688;1322;141335;-60
2021/12/14 04:06:58;;;;;;;277.10;128.10;;;;;;;-0.32;67.36;100130.50;211798;1327;140800;-60
2021/12/14 04:12:04;;;;;;;278.70;126.90;;;;;;;-0.26;67.43;100130.32;212425;1322;139682;-61
2021/12/14 04:17:09;;;;;;;287.10;131.60;;;;;;;-0.22;67.24;100122.64;213095;1322;139795;-61
2021/12/14 04:22:22;;;;;;;285.50;131.80;;;;;;;-0.27;66.99;100119.52;212217;1328;140299;-61
2021/12/14 04:27:28;;;;;;;317.40;133.70;;;;;;;-0.30;67.13;100120.22;212366;1327;139782;-61
2021/12/14 04:32:32;;;;;;;318.30;134.60;;;;;;;-0.27;67.01;100120.73;212459;1325;141381;-60
2021/12/14 04:37:39;;;;;;;320.90;135.30;;;;;;;-0.23;67.18;100119.69;212032;1332;140777;-64
2021/12/14 04:53:38;;;;;;;317.90;136.30;;;;;;;-0.04;67.43;100125.95;212152;1325;140643;-62
2021/12/14 04:58:51;;;;;;;324.50;137.10;;;;;;;0.05;67.57;100129.41;212099;1328;139835;-60
2021/12/14 05:04:03;;;;;;;300.50;133.10;;;;;;;0.07;67.22;100126.45;212155;1325;139134;-61
2021/12/14 05:09:27;;;;;;;308.00;130.50;;;;;;;0.07;67.12;100124.52;213840;1320;139943;-62
2021/12/14 05:14:37;;;;;;;290.60;127.10;;;;;;;-0.02;67.02;100118.60;211945;1333;139976;-61
2021/12/14 05:19:42;;;;;;;289.30;131.10;;;;;;;-0.06;67.20;100123.67;212461;1322;140928;-64
2021/12/14 05:24:50;;;;;;;278.30;121.30;;;;;;;0.02;67.76;100125.93;213384;1321;139628;-59
2021/12/14 05:30:04;;;;;;;278.20;121.80;;;;;;;0.08;67.69;100128.88;212608;1326;139318;-59
2021/12/14 05:35:11;;;;;;;314.10;124.50;;;;;;;0.11;67.68;100133.59;212096;1328;139412;-61
2021/12/14 05:40:36;;;;;;;279.30;120.30;;;;;;;0.11;67.50;100136.37;212677;1325;140167;-60
2021/12/14 05:45:46;;;;;;;285.60;124.30;;;;;;;0.22;67.71;100141.40;212154;1323;139582;-60
2021/12/14 05:50:55;;;;;;;300.50;128.90;;;;;;;0.34;67.83;100136.31;212512;1320;139614;-61
2021/12/14 05:56:01;;;;;;;305.00;130.00;;;;;;;0.41;67.62;100124.45;212329;1325;139405;-64
2021/12/14 06:01:13;;;;;;;311.00;133.20;;;;;;;0.45;67.77;100119.35;212864;1322;140076;-60
2021/12/14 06:06:22;;;;;;;343.50;134.70;;;;;;;0.52;67.72;100118.98;212463;1324;139919;-60
2021/12/14 06:11:28;;;;;;;380.80;138.60;;;;;;;0.55;67.61;100133.29;212962;1323;141362;-63
2021/12/14 06:16:36;;;;;;;377.00;132.20;;;;;;;0.52;67.47;100134.17;211978;1325;139626;-58
2021/12/14 06:21:39;;;;;;;389.80;134.90;;;;;;;0.44;67.29;100129.14;212000;1326;139663;-67
2021/12/14 06:26:52;;;;;;;380.10;133.90;;;;;;;0.39;67.50;100122.86;212339;1322;139758;-61
2021/12/14 06:31:56;;;;;;;381.50;133.20;;;;;;;0.37;67.42;100120.96;212385;1322;140427;-63
2021/12/14 06:42:32;;;;;;;365.50;124.00;;;;;;;0.46;67.83;100114.63;212502;1328;140446;-60
2021/12/14 06:47:40;;;;;;;350.80;120.00;;;;;;;0.48;67.66;100121.44;212157;1328;141034;-61
2021/12/14 06:52:44;;;;;;;360.90;123.20;;;;;;;0.50;67.58;100123.35;212343;1322;140547;-61
2021/12/14 06:58:27;;;;;;;349.70;121.40;;;;;;;0.46;67.54;100127.73;212255;1322;139539;-57
2021/12/14 07:03:57;;;;;;;353.50;119.10;;;;;;;0.41;67.67;100127.41;212514;1326;139406;-67
2021/12/14 07:09:13;;;;;;;334.70;119.40;;;;;;;0.41;67.80;100122.34;213074;1322;227642;-61
2021/12/14 07:14:29;;;;;;;345.30;120.10;;;;;;;0.46;68.03;100121.45;212799;1322;140075;-59
2021/12/14 07:19:51;;;;;;;325.00;114.40;;;;;;;0.45;68.02;100119.02;213227;1322;139970;-60
2021/12/14 07:25:13;;;;;;;312.00;114.80;;;;;;;0.40;67.91;100117.96;212068;1332;140115;-60
2021/12/14 07:30:37;;;;;;;307.00;110.50;;;;;;;0.35;67.91;100122.18;212922;1320;139991;-57
2021/12/14 07:35:50;;;;;;;329.20;114.30;;;;;;;0.34;68.16;100125.86;212541;1326;139523;-60
2021/12/14 07:41:23;;;;;;;334.40;115.10;;;;;;;0.39;68.47;100127.40;211981;1329;139805;-60
2021/12/14 07:46:39;;;;;;;343.60;119.70;;;;;;;0.51;68.48;100125.79;212428;1322;140465;-59
2021/12/14 07:51:42;;;;;;;357.00;124.00;;;;;;;0.63;68.57;100125.05;212258;1327;140106;-59
2021/12/14 07:56:57;;;;;;;366.50;128.70;;;;;;;0.71;68.42;100127.11;212260;1328;139122;-58
2021/12/14 08:02:20;;;;;;;375.80;129.00;;;;;;;0.78;68.35;100125.86;212960;1322;140045;-60
2021/12/14 08:07:31;;;;;;;353.00;129.20;;;;;;;0.85;68.29;100131.75;214057;1323;139957;-60
2021/12/14 08:12:39;;;;;;;318.00;119.10;;;;;;;0.91;68.36;100128.40;212076;1326;141591;-55
2021/12/14 08:17:46;;;;;;;602.20;297.00;;;;;;;1.01;68.67;100136.39;212263;1328;140980;-57
2021/12/14 08:22:49;;;;;;;310.10;117.30;;;;;;;1.19;68.68;100134.70;211967;1329;140507;-62
2021/12/14 08:28:05;;;;;;;294.10;108.20;;;;;;;1.24;68.20;100125.06;212529;1322;140482;-57
2021/12/14 08:33:21;;;;;;;288.50;109.90;;;;;;;1.13;67.94;100126.35;212363;1322;139690;-60
2021/12/14 08:38:26;;;;;;;281.90;107.30;;;;;;;1.06;68.01;100118.02;212716;1322;140168;-58
2021/12/14 08:43:34;;;;;;;298.00;108.00;;;;;;;1.04;68.22;100116.63;212592;1322;140332;-61
2021/12/14 08:48:43;;;;;;;315.70;114.00;;;;;;;1.01;68.19;100116.46;212123;1325;139416;-58
2021/12/14 08:54:12;;;;;;;299.60;110.30;;;;;;;1.01;68.27;100116.64;212699;1320;139592;-58
2021/12/14 08:59:16;;;;;;;299.10;112.20;;;;;;;1.07;68.45;100111.02;212783;1322;140137;-61
2021/12/14 09:04:29;;;;;;;294.30;115.60;;;;;;;1.18;68.60;100111.12;212841;1322;140134;-57
2021/12/14 09:09:33;;;;;;;304.90;113.20;;;;;;;1.27;68.58;100112.11;213208;1323;139599;-57
2021/12/14 09:14:37;;;;;;;278.50;108.50;;;;;;;1.35;68.74;100111.00;212439;1325;141006;-59
2021/12/14 09:19:45;;;;;;;267.50;102.30;;;;;;;1.43;68.80;100109.18;212517;1322;139650;-61
2021/12/14 09:24:49;;;;;;;257.30;99.70;;;;;;;1.49;68.78;100114.73;212428;1323;140012;-58
2021/12/14 09:29:54;;;;;;;245.20;92.30;;;;;;;1.52;68.74;100110.86;212238;1323;139064;-58
2021/12/14 09:35:00;;;;;;;257.40;96.30;;;;;;;1.48;68.75;100106.70;212417;1322;141029;-60
2021/12/14 09:40:14;;;;;;;249.20;92.40;;;;;;;1.48;68.93;100098.66;213062;1325;140029;-58
2021/12/14 09:45:22;;;;;;;304.00;112.20;;;;;;;1.58;69.56;100081.44;213136;1322;139102;-59
2021/12/14 09:50:30;;;;;;;266.40;100.40;;;;;;;1.75;69.46;100079.89;212178;1326;140509;-60
2021/12/14 09:55:36;;;;;;;256.40;100.30;;;;;;;1.92;69.75;100080.23;212045;1322;140221;-60
2021/12/14 10:00:49;;;;;;;242.20;97.00;;;;;;;2.07;69.60;100080.08;213178;1325;139012;-58
2021/12/14 10:05:57;;;;;;;229.40;91.50;;;;;;;2.17;69.32;100080.49;213065;1322;139184;-60
2021/12/14 10:11:07;;;;;;;249.30;94.20;;;;;;;2.20;69.12;100063.49;212315;1323;139630;-60
2021/12/14 10:16:11;;;;;;;237.50;94.10;;;;;;;2.23;69.08;100058.73;212517;1321;139410;-61
2021/12/14 10:21:20;;;;;;;215.30;87.10;;;;;;;2.22;69.15;100058.40;212564;1322;139493;-59
2021/12/14 10:26:25;;;;;;;219.30;89.10;;;;;;;2.21;69.11;100058.05;212448;1319;139973;-59
2021/12/14 10:31:37;;;;;;;263.90;100.90;;;;;;;2.25;69.24;100063.44;211992;1328;139585;-58
2021/12/14 10:36:44;;;;;;;250.90;97.00;;;;;;;2.28;69.22;100060.95;211929;1329;139641;-57
2021/12/14 10:47:21;;;;;;;259.80;96.00;;;;;;;2.36;69.25;100051.57;212354;1324;141329;-60
2021/12/14 10:52:28;;;;;;;252.70;97.60;;;;;;;2.43;69.23;100051.30;212812;1327;139635;-60
2021/12/14 10:57:33;;;;;;;241.70;94.90;;;;;;;2.55;69.40;100046.41;213330;1320;139495;-63
2021/12/14 11:02:40;;;;;;;237.20;91.80;;;;;;;2.63;69.15;100039.14;212244;1326;139837;-59
2021/12/14 11:07:46;;;;;;;246.80;94.70;;;;;;;2.65;69.19;100035.95;212673;1322;139943;-62
2021/12/14 11:12:55;;;;;;;235.20;94.60;;;;;;;2.67;69.01;100035.05;212090;1329;139695;-58
2021/12/14 11:18:09;;;;;;;238.40;92.70;;;;;;;2.68;69.30;100040.64;212639;1326;160411;-59
2021/12/14 11:23:17;;;;;;;237.60;92.30;;;;;;;2.74;69.39;100025.48;212684;1320;140374;-59
2021/12/14 11:28:23;;;;;;;224.90;92.90;;;;;;;2.82;69.35;100022.91;212146;1322;139140;-60
2021/12/14 11:33:39;;;;;;;;;;;;;;;2.89;69.49;100018.44;212231;1322;139665;-59
2021/12/14 11:38:52;;;;;;;213.10;86.70;;;;;;;2.92;69.20;100012.61;212387;1325;125633;-59
2021/12/14 11:44:02;;;;;;;233.80;88.40;;;;;;;2.93;69.29;100004.88;211841;1326;139314;-60
2021/12/14 11:49:06;;;;;;;212.60;87.00;;;;;;;2.97;69.17;100003.75;212796;1325;141780;-61
2021/12/14 11:54:09;;;;;;;209.00;89.80;;;;;;;3.02;69.03;100002.28;212745;1329;140065;-62
2021/12/14 11:59:12;;;;;;;219.40;91.90;;;;;;;3.11;69.34;100006.02;212560;1322;140072;-58
2021/12/14 12:04:20;;;;;;;215.60;91.70;;;;;;;3.18;69.20;100006.41;212238;1328;139356;-61
2021/12/14 12:09:29;;;;;;;220.20;91.30;;;;;;;3.22;69.25;100002.48;213192;1322;139291;-62
2021/12/14 12:14:50;;;;;;;238.90;96.80;;;;;;;3.25;69.20;100001.91;212272;1325;139501;-62
2021/12/14 12:20:14;;;;;;;222.70;93.80;;;;;;;3.27;68.99;100003.81;212618;1326;140639;-59
2021/12/14 12:25:24;;;;;;;349.50;189.80;;;;;;;3.27;69.24;100002.23;212525;1320;139234;-60
2021/12/14 12:30:36;;;;;;;225.10;90.00;;;;;;;3.41;69.47;99996.03;212174;1321;139836;-61
2021/12/14 12:35:45;;;;;;;215.10;85.60;;;;;;;3.48;69.04;99986.78;212586;1319;140179;-57
2021/12/14 12:41:12;;;;;;;233.20;89.80;;;;;;;3.54;69.12;99986.83;212386;1326;140970;-57
2021/12/14 12:46:25;;;;;;;216.40;83.30;;;;;;;3.60;68.93;99994.11;212451;1322;139800;-57
2021/12/14 12:51:52;;;;;;;157.90;66.60;;;;;;;3.59;68.87;99993.77;212537;1322;139768;-58
2021/12/14 12:57:08;;;;;;;171.90;67.70;;;;;;;3.60;69.08;99995.33;212340;1327;140005;-58
2021/12/14 13:02:21;;;;;;;175.80;68.60;;;;;;;3.59;68.86;99997.80;212402;1326;140590;-58
2021/12/14 13:07:38;;;;;;;166.10;69.40;;;;;;;3.54;68.81;99992.27;212153;1324;139341;-57
2021/12/14 13:12:47;;;;;;;173.30;68.10;;;;;;;3.51;68.67;99996.37;212440;1322;139631;-57
2021/12/14 13:18:10;;;;;;;203.50;84.00;;;;;;;3.49;68.74;99999.04;212287;1328;139115;-59
2021/12/14 13:23:14;;;;;;;190.50;77.30;;;;;;;3.44;68.61;100009.99;212275;1323;140270;-57
2021/12/14 13:28:37;;;;;;;126.20;55.30;;;;;;;3.43;68.89;100012.65;212356;1325;139502;-60
2021/12/14 13:33:40;;;;;;;77.70;35.70;;;;;;;3.45;68.97;100019.11;212170;1328;139531;-60
2021/12/14 13:38:43;;;;;;;77.20;37.00;;;;;;;3.43;68.94;100012.13;212454;1322;140024;-58
2021/12/14 13:43:46;;;;;;;76.70;37.70;;;;;;;3.42;69.18;100011.61;212487;1320;139407;-58
2021/12/14 13:48:50;;;;;;;76.70;37.10;;;;;;;3.48;69.43;100012.04;212899;1326;139322;-58
2021/12/14 13:53:55;;;;;;;78.00;34.10;;;;;;;3.54;69.58;100018.95;211940;1329;139003;-60
2021/12/14 13:59:00;;;;;;;76.20;35.40;;;;;;;3.55;69.42;100021.55;211950;1328;139226;-59
2021/12/14 14:04:07;;;;;;;68.60;35.20;;;;;;;3.56;69.44;100019.42;212842;1322;139245;-59
2021/12/14 14:09:13;;;;;;;78.30;35.60;;;;;;;3.56;69.33;100021.36;213244;1322;139093;-60
2021/12/14 14:14:34;;;;;;;72.90;33.20;;;;;;;3.59;69.44;100016.23;212849;1322;138847;-59
2021/12/14 14:19:50;;;;;;;92.70;43.50;;;;;;;3.60;70.00;100016.74;212423;1328;139665;-60
2021/12/14 14:25:04;;;;;;;77.10;34.80;;;;;;;3.73;70.22;100015.98;212627;1323;139871;-62
2021/12/14 14:30:40;;;;;;;73.10;35.80;;;;;;;3.80;70.00;100009.88;213061;1320;139468;-62
2021/12/14 14:35:55;;;;;;;148.70;64.30;;;;;;;3.86;69.99;100002.91;212551;1328;140954;-61
2021/12/14 14:41:07;;;;;;;186.50;72.70;;;;;;;3.88;69.73;99999.19;212076;1326;139641;-61
2021/12/14 14:46:10;;;;;;;199.10;79.50;;;;;;;3.91;69.41;100004.06;212834;1322;139245;-60
2021/12/14 14:52:02;;;;;;;183.20;77.70;;;;;;;3.89;69.42;100004.95;212209;1328;139590;-61
2021/12/14 14:57:11;;;;;;;177.40;76.50;;;;;;;3.83;69.12;100010.17;212862;1322;139444;-62
2021/12/14 15:02:15;;;;;;;161.70;71.30;;;;;;;3.72;69.01;100001.42;212049;1325;139600;-61
2021/12/14 15:07:18;;;;;;;164.40;69.70;;;;;;;3.65;69.09;100006.64;212384;1326;139412;-65
2021/12/14 15:12:21;;;;;;;172.40;72.50;;;;;;;3.63;69.17;100011.77;211818;1331;139506;-62
2021/12/14 15:17:26;;;;;;;176.50;73.60;;;;;;;3.61;69.05;100005.49;212147;1322;139546;-63
2021/12/14 15:22:31;;;;;;;170.00;70.50;;;;;;;3.60;69.15;100015.52;212087;1328;141028;-60
2021/12/14 15:27:44;;;;;;;160.70;71.40;;;;;;;3.63;69.10;100010.02;212332;1322;140001;-64
2021/12/14 15:33:02;;;;;;;151.90;67.80;;;;;;;3.67;69.26;100003.10;212625;1326;139764;-61
2021/12/14 15:38:15;;;;;;;155.20;70.10;;;;;;;3.68;69.29;99996.23;212088;1326;139726;-64
2021/12/14 15:43:23;;;;;;;152.20;68.00;;;;;;;3.70;69.07;99992.69;212223;1323;139212;-61
2021/12/14 15:48:43;;;;;;;270.30;132.20;;;;;;;3.74;69.76;99990.34;213055;1323;139126;-63
2021/12/14 15:54:00;;;;;;;152.80;70.40;;;;;;;3.92;69.98;99981.55;212485;1320;140528;-61
2021/12/14 15:59:32;;;;;;;151.40;69.50;;;;;;;3.89;69.26;99982.14;212474;1328;138864;-63
2021/12/14 16:04:54;;;;;;;154.40;67.80;;;;;;;3.77;68.66;99984.66;211866;1328;139253;-64
2021/12/14 16:10:07;;;;;;;155.20;71.60;;;;;;;3.64;68.96;99977.18;212322;1327;139547;-61
2021/12/14 16:15:18;;;;;;;157.80;68.90;;;;;;;3.54;68.80;99986.84;212354;1328;139637;-65
2021/12/14 16:20:47;;;;;;;159.70;68.40;;;;;;;3.51;68.87;99994.45;212130;1325;140744;-63
2021/12/14 16:26:03;;;;;;;160.10;72.20;;;;;;;3.50;68.81;99995.33;212126;1328;139921;-62
2021/12/14 16:31:10;;;;;;;167.70;74.40;;;;;;;3.52;69.05;99998.81;212921;1322;140083;-64
2021/12/14 16:36:17;;;;;;;207.30;96.60;;;;;;;3.56;69.55;100004.52;212396;1329;140035;-60
2021/12/14 16:41:25;;;;;;;159.30;73.50;;;;;;;3.85;69.70;100020.48;212427;1326;140230;-64
2021/12/14 16:46:44;;;;;;;168.80;74.60;;;;;;;3.81;68.95;100029.00;212289;1326;139751;-61
2021/12/14 16:51:52;;;;;;;161.90;77.30;;;;;;;3.69;68.99;100036.41;212471;1329;139519;-62
2021/12/14 16:57:01;;;;;;;170.40;77.90;;;;;;;3.56;68.76;100037.84;212317;1324;139516;-63
2021/12/14 17:02:30;;;;;;;170.90;75.20;;;;;;;3.50;69.03;100038.14;213259;1322;139631;-60
2021/12/14 17:07:38;;;;;;;175.70;74.60;;;;;;;3.45;69.27;100036.66;211824;1328;139625;-59
2021/12/14 17:12:41;;;;;;;181.30;76.00;;;;;;;3.42;69.16;100032.85;211998;1326;139927;-60
2021/12/14 17:17:45;;;;;;;189.50;80.90;;;;;;;3.40;68.98;100041.47;212229;1326;139845;-60
2021/12/14 17:22:48;;;;;;;190.80;84.70;;;;;;;3.38;69.16;100039.75;212008;1328;139902;-62
2021/12/14 17:27:51;;;;;;;197.10;86.60;;;;;;;3.52;70.11;100043.54;211993;1330;140636;-61
2021/12/14 17:32:56;;;;;;;173.00;77.40;;;;;;;3.69;70.11;100035.54;212453;1320;139314;-61
2021/12/14 17:38:03;;;;;;;182.30;79.20;;;;;;;3.60;69.29;100027.61;212153;1322;140088;-62
2021/12/14 17:43:15;;;;;;;182.10;79.00;;;;;;;3.50;69.29;100025.33;212843;1320;139477;-66
2021/12/14 17:48:20;;;;;;;173.20;74.90;;;;;;;3.40;69.38;100013.77;212388;1329;140288;-64
2021/12/14 17:53:25;;;;;;;349.20;170.70;;;;;;;3.39;70.08;100002.89;212191;1326;139761;-60
2021/12/14 17:58:31;;;;;;;175.10;76.50;;;;;;;3.60;70.47;100000.06;212472;1326;140709;-60
2021/12/14 18:03:38;;;;;;;179.90;74.90;;;;;;;3.68;70.11;100005.88;212593;1322;140596;-60
2021/12/14 18:08:49;;;;;;;177.00;76.30;;;;;;;3.67;69.55;100007.50;212810;1322;139261;-61
2021/12/14 18:14:07;;;;;;;183.80;78.40;;;;;;;3.60;69.74;100013.05;212216;1328;142377;-64
2021/12/14 18:19:17;;;;;;;185.50;80.50;;;;;;;3.59;69.81;100024.83;213056;1322;139431;-66
2021/12/14 18:24:26;;;;;;;181.70;78.80;;;;;;;3.58;70.01;100036.23;212263;1328;140521;-60
2021/12/14 18:29:43;;;;;;;177.30;78.20;;;;;;;3.52;69.77;100041.61;212087;1323;140196;-62
2021/12/14 18:34:47;;;;;;;170.60;76.10;;;;;;;3.46;69.63;100042.27;212439;1328;139413;-64
2021/12/14 18:39:54;;;;;;;175.60;78.10;;;;;;;3.44;69.88;100051.77;212829;1326;140047;-65
2021/12/14 18:45:04;;;;;;;191.70;80.90;;;;;;;3.45;70.02;100042.96;211879;1326;142217;-64
2021/12/14 18:50:22;;;;;;;183.30;79.90;;;;;;;3.52;70.44;100040.73;212212;1323;139925;-64
2021/12/14 18:55:39;;;;;;;177.70;78.10;;;;;;;3.61;70.33;100048.84;212658;1323;139620;-61
2021/12/14 19:00:48;;;;;;;178.20;76.40;;;;;;;3.64;70.41;100043.52;212683;1328;139563;-64
2021/12/14 19:06:00;;;;;;;184.90;78.10;;;;;;;3.64;70.11;100041.77;212803;1323;235301;-62
2021/12/14 19:11:10;;;;;;;179.00;75.50;;;;;;;3.60;70.16;100043.23;212543;1327;139413;-61
2021/12/14 19:16:21;;;;;;;173.20;75.50;;;;;;;3.50;69.88;100049.71;212557;1325;227241;-60
2021/12/14 19:21:31;;;;;;;175.10;77.30;;;;;;;3.42;69.99;100053.88;212645;1325;139298;-60
2021/12/14 19:26:38;;;;;;;177.20;77.50;;;;;;;3.37;70.23;100050.63;212485;1322;139625;-65
2021/12/14 19:31:49;;;;;;;176.20;73.50;;;;;;;3.36;70.11;100054.16;212287;1324;140298;-62
2021/12/14 19:36:54;;;;;;;168.40;74.70;;;;;;;3.39;70.11;100052.19;212411;1322;141386;-61
2021/12/14 19:42:05;;;;;;;173.10;77.80;;;;;;;3.47;70.59;100054.16;212313;1321;140526;-63
2021/12/14 19:47:14;;;;;;;171.50;75.50;;;;;;;3.51;70.44;100049.02;213006;1323;139801;-62
2021/12/14 19:52:18;;;;;;;163.30;74.90;;;;;;;3.54;70.38;100045.78;212293;1323;140061;-60
2021/12/14 19:57:30;;;;;;;170.90;75.50;;;;;;;3.58;70.66;100041.52;212399;1323;140155;-60
2021/12/14 20:02:35;;;;;;;162.80;75.30;;;;;;;3.63;70.48;100039.33;211940;1329;140674;-63
2021/12/14 20:07:40;;;;;;;162.60;72.80;;;;;;;3.62;70.57;100038.64;212127;1326;141196;-62
2021/12/14 20:12:47;;;;;;;169.20;73.50;;;;;;;3.62;70.44;100047.23;212556;1322;139426;-59
2021/12/14 20:17:54;;;;;;;158.60;70.50;;;;;;;3.62;70.60;100053.89;212532;1324;139649;-61
2021/12/14 20:23:03;;;;;;;171.80;76.00;;;;;;;3.67;70.75;100058.38;212200;1322;140330;-60
2021/12/14 20:28:18;;;;;;;162.70;73.90;;;;;;;3.75;70.82;100061.91;212657;1324;140863;-63
2021/12/14 20:33:26;;;;;;;158.70;76.90;;;;;;;3.82;70.83;100071.10;212764;1319;140586;-65
2021/12/14 20:38:29;;;;;;;164.00;71.90;;;;;;;3.86;70.69;100070.16;213206;1322;142999;-61
2021/12/14 20:43:41;;;;;;;165.80;72.50;;;;;;;3.87;70.77;100067.65;212461;1326;139806;-59
2021/12/14 20:48:50;;;;;;;155.20;70.90;;;;;;;3.88;70.84;100076.96;212192;1329;139244;-62
2021/12/14 20:54:06;;;;;;;114.20;55.10;;;;;;;3.88;70.63;100082.41;212129;1328;139045;-61
2021/12/14 20:59:15;;;;;;;111.70;54.70;;;;;;;3.86;70.79;100079.45;212184;1328;139912;-61
2021/12/14 21:04:32;;;;;;;116.90;52.90;;;;;;;3.88;70.68;100082.76;212292;1326;140504;-60
2021/12/14 21:09:45;;;;;;;107.50;49.70;;;;;;;3.93;70.78;100073.00;213485;1322;139917;-63
2021/12/14 21:14:51;;;;;;;94.90;50.10;;;;;;;3.95;70.92;100079.64;212277;1326;139491;-63
2021/12/14 21:19:55;;;;;;;;;;;;;;;3.93;70.80;100091.08;212672;1322;139224;-60
2021/12/14 21:25:25;;;;;;;295.40;153.70;;;;;;;3.94;70.99;100096.86;212231;1329;125046;-59
2021/12/14 21:30:39;;;;;;;107.10;54.10;;;;;;;4.06;71.17;100097.88;212409;1328;139376;-64
2021/12/14 21:36:14;;;;;;;105.30;55.90;;;;;;;4.04;70.79;100101.23;212680;1323;139890;-60
2021/12/14 21:41:21;;;;;;;121.00;59.80;;;;;;;3.98;70.66;100106.45;212870;1327;139328;-58
2021/12/14 21:46:42;;;;;;;133.20;62.90;;;;;;;3.95;70.98;100105.26;212580;1323;139950;-67
2021/12/14 21:51:59;;;;;;;127.10;64.90;;;;;;;3.97;70.94;100096.45;212528;1322;140846;-67
2021/12/14 21:57:04;;;;;;;133.30;65.20;;;;;;;4.02;71.18;100097.42;212571;1321;139522;-60
2021/12/14 22:02:11;;;;;;;127.60;63.80;;;;;;;4.05;71.38;100096.15;212144;1323;139360;-58
2021/12/14 22:07:18;;;;;;;131.20;63.30;;;;;;;4.03;71.03;100090.20;212724;1322;140075;-64
2021/12/14 22:12:28;;;;;;;154.10;70.00;;;;;;;3.95;71.41;100097.71;212212;1325;140941;-61
2021/12/14 22:17:38;;;;;;;147.90;70.10;;;;;;;3.92;71.56;100104.27;212307;1328;140487;-60
2021/12/14 22:22:43;;;;;;;148.20;70.90;;;;;;;3.96;71.54;100106.30;212442;1322;139819;-62
2021/12/14 22:27:47;;;;;;;141.20;68.20;;;;;;;4.01;71.59;100092.52;211966;1323;139794;-62
2021/12/14 22:32:51;;;;;;;143.00;68.70;;;;;;;3.99;71.85;100091.86;212344;1326;139349;-61
2021/12/14 22:37:54;;;;;;;137.40;63.60;;;;;;;3.99;71.52;100097.11;213061;1321;139702;-59
2021/12/14 22:44:05;;;;;;;149.80;70.80;;;;;;;3.97;71.83;100094.52;212465;1322;139853;-61
2021/12/14 22:48:20;;;;;;;148.30;72.10;;;;;;;4.01;72.01;100095.86;212320;1326;140125;-64
2021/12/14 22:53:24;;;;;;;140.40;66.20;;;;;;;4.08;72.02;100094.52;212304;1326;140156;-62
2021/12/14 22:58:30;;;;;;;146.90;67.30;;;;;;;4.08;72.16;100087.13;212082;1329;140660;-61
2021/12/14 23:03:39;;;;;;;145.20;67.00;;;;;;;4.07;72.30;100086.08;212848;1322;140298;-62
2021/12/14 23:08:42;;;;;;;153.90;69.70;;;;;;;4.01;72.30;100083.20;212505;1322;139475;-61
2021/12/14 23:14:00;;;;;;;155.90;68.00;;;;;;;3.97;72.14;100086.63;212237;1323;139719;-65
2021/12/14 23:19:18;;;;;;;148.60;69.40;;;;;;;3.96;72.33;100090.67;212831;1322;140431;-63
2021/12/14 23:24:21;;;;;;;151.90;70.80;;;;;;;3.95;72.45;100084.04;211972;1325;140227;-62
2021/12/14 23:29:24;;;;;;;163.10;76.20;;;;;;;3.93;72.48;100074.23;213159;1322;140201;-60